Time;durP1;ratioP1;P1;durP2;ratioP2;P2;SDS_P1;SDS_P2;PMS_P1;PMS_P2;Temp;Humidity;BMP_temperature;BMP_pressure;BME280_temperature;BME280_humidity;BME280_pressure;Samples;Min_cycle;Max_cycle;Signal;HPM_P1;HPM_P2
2022/01/14 00:01:07;;;;;;;33.80;18.23;;;;;;;-141.59;100.00;61776.25;4942660;28;20225;-81
2022/01/14 00:03:34;;;;;;;32.20;17.90;;;;;;;-141.59;100.00;61776.25;4946965;28;20293;-81
2022/01/14 00:06:01;;;;;;;30.93;16.90;;;;;;;-141.59;100.00;61776.25;4962966;28;20237;-81
2022/01/14 00:08:28;;;;;;;35.47;18.90;;;;;;;-141.59;100.00;61776.25;4946712;28;20332;-81
2022/01/14 00:10:57;;;;;;;29.13;16.97;;;;;;;-141.59;100.00;61776.25;4957839;28;20213;-81
2022/01/14 00:16:22;;;;;;;35.60;18.40;;;;;;;-141.59;100.00;61776.25;4907875;29;20283;-82
2022/01/14 00:18:49;;;;;;;33.90;17.63;;;;;;;-141.59;100.00;61776.25;4942308;28;20222;-81
2022/01/14 00:21:16;;;;;;;33.47;17.50;;;;;;;-141.59;100.00;61776.25;4947963;29;20205;-82
2022/01/14 00:23:45;;;;;;;30.80;17.40;;;;;;;-141.59;100.00;61776.25;4955116;28;20308;-81
2022/01/14 00:31:48;;;;;;;32.00;17.87;;;;;;;-141.59;100.00;61776.25;4948670;28;20244;-81
2022/01/14 00:34:16;;;;;;;36.27;19.63;;;;;;;-141.59;100.00;61776.25;4963296;28;20214;-81
2022/01/14 00:36:46;;;;;;;32.80;18.37;;;;;;;-141.59;100.00;61776.25;4943000;28;20217;-81
2022/01/14 00:39:14;;;;;;;35.50;19.63;;;;;;;-141.59;100.00;61776.25;4946670;28;20306;-81
2022/01/14 00:41:42;;;;;;;36.67;19.17;;;;;;;-141.59;100.00;61776.25;4945396;28;20229;-81
2022/01/14 00:44:12;;;;;;;38.60;19.50;;;;;;;-141.59;100.00;61776.25;4956087;28;20241;-81
2022/01/14 00:46:40;;;;;;;36.37;19.60;;;;;;;-141.59;100.00;61776.25;4947398;29;20248;-81
2022/01/14 00:49:09;;;;;;;37.23;19.80;;;;;;;-141.59;100.00;61776.25;4959836;28;20213;-81
2022/01/14 00:51:36;;;;;;;36.07;18.37;;;;;;;-141.59;100.00;61776.25;4946618;29;20208;-81
2022/01/14 00:54:04;;;;;;;37.33;20.40;;;;;;;-141.59;100.00;61776.25;4947560;28;20201;-81
2022/01/14 00:56:44;;;;;;;36.67;19.23;;;;;;;-141.59;100.00;61776.25;4945855;28;20213;-81
2022/01/14 00:59:15;;;;;;;37.03;19.57;;;;;;;-141.59;100.00;61776.25;4946545;28;20209;-81
2022/01/14 01:01:43;;;;;;;36.40;18.87;;;;;;;-141.59;100.00;61776.25;4962667;28;20240;-81
2022/01/14 01:04:13;;;;;;;33.57;18.80;;;;;;;-141.59;100.00;61776.25;4947074;28;20209;-81
2022/01/14 01:06:41;;;;;;;38.57;19.10;;;;;;;-141.59;100.00;61776.25;4940221;28;20221;-81
2022/01/14 01:09:13;;;;;;;38.87;19.97;;;;;;;-141.59;100.00;61776.25;4943503;28;20198;-80
2022/01/14 01:11:45;;;;;;;38.70;20.23;;;;;;;-141.59;100.00;61776.25;4963937;28;20270;-81
2022/01/14 01:14:16;;;;;;;37.33;19.70;;;;;;;-141.59;100.00;61776.25;4941557;28;20253;-81
2022/01/14 01:16:44;;;;;;;36.63;18.67;;;;;;;-141.59;100.00;61776.25;4949435;28;20209;-81
2022/01/14 01:19:12;;;;;;;33.90;17.90;;;;;;;-141.59;100.00;61776.25;4962608;28;20198;-81
2022/01/14 01:21:40;;;;;;;33.63;17.17;;;;;;;-141.59;100.00;61776.25;4946199;28;20298;-81
2022/01/14 01:24:08;;;;;;;34.30;17.67;;;;;;;-141.59;100.00;61776.25;4951593;28;20248;-81
2022/01/14 01:26:38;;;;;;;37.13;18.97;;;;;;;-141.59;100.00;61776.25;4963530;28;20213;-81
2022/01/14 01:29:29;;;;;;;37.07;18.20;;;;;;;-141.59;100.00;61776.25;4965087;28;20215;-80
2022/01/14 01:31:55;;;;;;;35.43;17.30;;;;;;;-141.59;100.00;61776.25;4944019;28;20234;-81
2022/01/14 01:34:26;;;;;;;31.63;17.37;;;;;;;-141.59;100.00;61776.25;4963930;28;20213;-81
2022/01/14 01:36:56;;;;;;;33.83;17.03;;;;;;;-141.59;100.00;61776.25;4946120;28;20215;-81
2022/01/14 01:39:26;;;;;;;35.47;18.33;;;;;;;-141.59;100.00;61776.25;4965226;28;20212;-81
2022/01/14 01:41:56;;;;;;;35.37;17.13;;;;;;;-141.59;100.00;61776.25;4953209;28;20254;-81
2022/01/14 01:44:25;;;;;;;37.30;17.30;;;;;;;-141.59;100.00;61776.25;4957335;28;20197;-81
2022/01/14 01:46:54;;;;;;;35.13;17.77;;;;;;;-141.59;100.00;61776.25;4948823;28;20299;-81
2022/01/14 01:49:24;;;;;;;32.67;16.47;;;;;;;-141.59;100.00;61776.25;4947705;28;20232;-81
2022/01/14 01:51:52;;;;;;;34.37;16.53;;;;;;;-141.59;100.00;61776.25;4949431;28;20301;-80
2022/01/14 01:54:21;;;;;;;31.97;17.53;;;;;;;-141.59;100.00;61776.25;4946500;28;20244;-81
2022/01/14 01:56:50;;;;;;;33.73;17.00;;;;;;;-141.59;100.00;61776.25;4938751;28;20307;-81
2022/01/14 01:59:17;;;;;;;32.67;16.90;;;;;;;-141.59;100.00;61776.25;4955857;28;20217;-81
2022/01/14 02:01:44;;;;;;;31.63;16.97;;;;;;;-141.59;100.00;61776.25;4946813;28;20211;-81
2022/01/14 02:04:13;;;;;;;31.20;16.90;;;;;;;-141.59;100.00;61776.25;4961451;28;20206;-81
2022/01/14 02:06:42;;;;;;;32.27;16.93;;;;;;;-141.59;100.00;61776.25;4948374;28;20228;-81
2022/01/14 02:09:12;;;;;;;33.57;17.67;;;;;;;-141.59;100.00;61776.25;4964705;28;20313;-81
2022/01/14 02:11:39;;;;;;;30.43;15.87;;;;;;;-141.59;100.00;61776.25;4961359;28;20218;-81
2022/01/14 02:14:14;;;;;;;31.67;16.00;;;;;;;-141.59;100.00;61776.25;4948202;28;20289;-81
2022/01/14 02:19:24;;;;;;;31.27;16.80;;;;;;;-141.59;100.00;61776.25;4948361;28;20267;-81
2022/01/14 02:22:11;;;;;;;29.10;15.50;;;;;;;-141.59;100.00;61776.25;4947481;28;20211;-81
2022/01/14 02:27:26;;;;;;;28.87;15.27;;;;;;;-141.59;100.00;61776.25;4942436;28;20237;-81
2022/01/14 02:29:53;;;;;;;31.70;15.83;;;;;;;-141.59;100.00;61776.25;4963632;28;20219;-81
2022/01/14 02:32:20;;;;;;;31.07;16.03;;;;;;;-141.59;100.00;61776.25;4947779;28;20251;-81
2022/01/14 02:34:47;;;;;;;28.93;15.83;;;;;;;-141.59;100.00;61776.25;4965195;28;20220;-80
2022/01/14 02:37:19;;;;;;;26.90;14.33;;;;;;;-141.59;100.00;61776.25;4963147;28;20290;-81
2022/01/14 02:39:47;;;;;;;28.07;15.20;;;;;;;-141.59;100.00;61776.25;4963385;28;20232;-80
2022/01/14 02:42:15;;;;;;;27.10;14.63;;;;;;;-141.59;100.00;61776.25;4947140;28;20224;-81
2022/01/14 02:44:42;;;;;;;27.10;14.47;;;;;;;-141.59;100.00;61776.25;4960714;28;20205;-80
2022/01/14 02:47:09;;;;;;;29.90;14.97;;;;;;;-141.59;100.00;61776.25;4959774;28;20308;-80
2022/01/14 02:49:38;;;;;;;30.27;14.67;;;;;;;-141.59;100.00;61776.25;4943519;28;20206;-81
2022/01/14 02:52:08;;;;;;;26.10;14.00;;;;;;;-141.59;100.00;61776.25;4946814;28;20241;-80
2022/01/14 02:54:40;;;;;;;27.57;15.30;;;;;;;-141.59;100.00;61776.25;4959503;28;20228;-80
2022/01/14 02:57:10;;;;;;;28.27;15.07;;;;;;;-141.59;100.00;61776.25;4950586;28;20216;-81
2022/01/14 02:59:40;;;;;;;31.03;15.43;;;;;;;-141.59;100.00;61776.25;4968079;28;20211;-80
2022/01/14 03:02:09;;;;;;;30.53;17.07;;;;;;;-141.59;100.00;61776.25;4945358;28;20213;-80
2022/01/14 03:04:39;;;;;;;29.23;15.60;;;;;;;-141.59;100.00;61776.25;4966895;28;20267;-81
2022/01/14 03:07:10;;;;;;;30.70;16.50;;;;;;;-141.59;100.00;61776.25;4965969;28;20241;-81
2022/01/14 03:09:39;;;;;;;32.33;16.97;;;;;;;-141.59;100.00;61776.25;4950908;28;20215;-81
2022/01/14 03:12:07;;;;;;;30.93;17.73;;;;;;;-141.59;100.00;61776.25;4952373;28;20208;-81
2022/01/14 03:14:34;;;;;;;30.60;17.53;;;;;;;-141.59;100.00;61776.25;4961310;28;20220;-81
2022/01/14 03:17:02;;;;;;;32.40;18.57;;;;;;;-141.59;100.00;61776.25;4964742;28;20200;-81
2022/01/14 03:19:29;;;;;;;35.47;18.70;;;;;;;-141.59;100.00;61776.25;4968753;28;20216;-81
2022/01/14 03:22:06;;;;;;;33.30;17.37;;;;;;;-141.59;100.00;61776.25;4947739;28;20260;-80
2022/01/14 03:27:21;;;;;;;32.27;17.57;;;;;;;-141.59;100.00;61776.25;4964563;28;20211;-80
2022/01/14 03:29:48;;;;;;;37.93;18.93;;;;;;;-141.59;100.00;61776.25;4961051;28;20209;-81
2022/01/14 03:32:15;;;;;;;35.73;18.87;;;;;;;-141.59;100.00;61776.25;4963367;28;20205;-80
2022/01/14 03:34:42;;;;;;;34.73;17.17;;;;;;;-141.59;100.00;61776.25;4968695;28;20201;-81
2022/01/14 03:37:09;;;;;;;34.97;16.50;;;;;;;-141.59;100.00;61776.25;4950343;28;20215;-80
2022/01/14 03:39:36;;;;;;;31.20;16.80;;;;;;;-141.59;100.00;61776.25;4967211;28;20203;-81
2022/01/14 03:42:05;;;;;;;30.90;16.20;;;;;;;-141.59;100.00;61776.25;4965800;28;20235;-81
2022/01/14 03:44:33;;;;;;;34.47;17.60;;;;;;;-141.59;100.00;61776.25;4951234;28;20199;-80
2022/01/14 03:47:01;;;;;;;35.33;17.47;;;;;;;-141.59;100.00;61776.25;4951663;28;20245;-80
2022/01/14 03:49:28;;;;;;;36.77;16.73;;;;;;;-141.59;100.00;61776.25;4951161;28;20202;-80
2022/01/14 03:51:55;;;;;;;34.27;17.20;;;;;;;-141.59;100.00;61776.25;4944833;28;20280;-80
2022/01/14 03:54:23;;;;;;;34.37;17.40;;;;;;;-141.59;100.00;61776.25;4948916;28;20214;-80
2022/01/14 03:56:50;;;;;;;32.70;15.87;;;;;;;-141.59;100.00;61776.25;4949008;28;20227;-80
2022/01/14 03:59:18;;;;;;;36.17;17.43;;;;;;;-141.59;100.00;61776.25;4949636;28;20218;-80
2022/01/14 04:01:47;;;;;;;35.00;16.97;;;;;;;-141.59;100.00;61776.25;4957561;28;20215;-80
2022/01/14 04:04:14;;;;;;;34.40;15.93;;;;;;;-141.59;100.00;61776.25;4948783;28;20231;-80
2022/01/14 04:06:41;;;;;;;35.93;18.00;;;;;;;-141.59;100.00;61776.25;4945200;28;20236;-81
2022/01/14 04:09:08;;;;;;;35.27;16.50;;;;;;;-141.59;100.00;61776.25;4951257;28;20212;-81
2022/01/14 04:11:36;;;;;;;36.20;17.30;;;;;;;-141.59;100.00;61776.25;4945367;28;20221;-80
2022/01/14 04:15:36;;;;;;;35.17;16.93;;;;;;;-141.59;100.00;61776.25;4948381;28;20196;-80
2022/01/14 04:16:58;;;;;;;38.37;18.27;;;;;;;-141.59;100.00;61776.25;4945348;28;20211;-80
2022/01/14 04:19:27;;;;;;;32.20;15.63;;;;;;;-141.59;100.00;61776.25;4950114;28;20215;-81
2022/01/14 04:21:55;;;;;;;32.63;16.07;;;;;;;-141.59;100.00;61776.25;4960777;28;20196;-80
2022/01/14 04:24:22;;;;;;;33.60;17.67;;;;;;;-141.59;100.00;61776.25;4949784;28;20228;-80
2022/01/14 04:26:49;;;;;;;33.10;16.67;;;;;;;-141.59;100.00;61776.25;4947609;28;20207;-80
2022/01/14 04:29:16;;;;;;;32.23;16.20;;;;;;;-141.59;100.00;61776.25;4948479;28;20299;-80
2022/01/14 04:31:43;;;;;;;33.20;16.63;;;;;;;-141.59;100.00;61776.25;4962302;28;20226;-80
2022/01/14 04:34:14;;;;;;;34.80;17.37;;;;;;;-141.59;100.00;61776.25;4947699;28;20220;-80
2022/01/14 04:36:41;;;;;;;33.87;17.37;;;;;;;-141.59;100.00;61776.25;4948681;28;20224;-80
2022/01/14 04:39:08;;;;;;;30.17;16.37;;;;;;;-141.59;100.00;61776.25;4941801;28;20211;-80
2022/01/14 04:41:35;;;;;;;30.67;16.60;;;;;;;-141.59;100.00;61776.25;4941343;28;20211;-80
2022/01/14 04:44:02;;;;;;;30.93;16.33;;;;;;;-141.59;100.00;61776.25;4967399;28;20239;-80
2022/01/14 04:47:15;;;;;;;32.17;17.27;;;;;;;-141.59;100.00;61776.25;4948750;28;20291;-80
2022/01/14 04:49:44;;;;;;;28.17;14.47;;;;;;;-141.59;100.00;61776.25;4965681;28;20212;-80
2022/01/14 04:52:11;;;;;;;31.33;16.00;;;;;;;-141.59;100.00;61776.25;4943252;28;20380;-80
2022/01/14 04:54:38;;;;;;;32.23;15.70;;;;;;;-141.59;100.00;61776.25;4966262;28;20228;-80
2022/01/14 04:57:05;;;;;;;31.40;15.70;;;;;;;-141.59;100.00;61776.25;4946382;28;20305;-80
2022/01/14 04:59:33;;;;;;;30.97;15.47;;;;;;;-141.59;100.00;61776.25;4967313;28;20193;-80
2022/01/14 05:02:00;;;;;;;31.77;15.60;;;;;;;-141.59;100.00;61776.25;4947029;28;20215;-80
2022/01/14 05:04:27;;;;;;;29.23;15.23;;;;;;;-141.59;100.00;61776.25;4964110;28;20250;-80
2022/01/14 05:07:01;;;;;;;32.13;15.23;;;;;;;-141.59;100.00;61776.25;4958941;28;20255;-80
2022/01/14 05:09:34;;;;;;;31.80;15.97;;;;;;;-141.59;100.00;61776.25;4952844;28;20254;-80
2022/01/14 05:12:07;;;;;;;27.60;14.03;;;;;;;-141.59;100.00;61776.25;4947374;28;20235;-80
2022/01/14 05:14:34;;;;;;;27.10;14.47;;;;;;;-141.59;100.00;61776.25;4944421;29;20221;-80
2022/01/14 05:17:02;;;;;;;29.80;15.67;;;;;;;-141.59;100.00;61776.25;4945469;28;20209;-80
2022/01/14 05:19:29;;;;;;;30.60;15.43;;;;;;;-141.59;100.00;61776.25;4941689;28;20324;-80
2022/01/14 05:21:58;;;;;;;31.53;16.20;;;;;;;-141.59;100.00;61776.25;4945921;28;20219;-80
2022/01/14 05:24:25;;;;;;;32.17;15.93;;;;;;;-141.59;100.00;61776.25;4947213;28;20314;-80
2022/01/14 05:26:52;;;;;;;31.63;16.37;;;;;;;-141.59;100.00;61776.25;4940867;28;20240;-80
2022/01/14 05:29:19;;;;;;;33.37;15.47;;;;;;;-141.59;100.00;61776.25;4945317;29;20220;-80
2022/01/14 05:31:48;;;;;;;31.77;15.10;;;;;;;-141.59;100.00;61776.25;4938184;28;20206;-80
2022/01/14 05:34:15;;;;;;;31.63;15.73;;;;;;;-141.59;100.00;61776.25;4961958;28;20216;-80
2022/01/14 05:36:43;;;;;;;28.60;15.53;;;;;;;-141.59;100.00;61776.25;4960813;28;20280;-80
2022/01/14 05:39:12;;;;;;;32.70;15.63;;;;;;;-141.59;100.00;61776.25;4946649;29;20217;-79
2022/01/14 05:41:39;;;;;;;30.30;14.97;;;;;;;-141.59;100.00;61776.25;4940506;28;20222;-80
2022/01/14 05:44:07;;;;;;;35.57;15.73;;;;;;;-141.59;100.00;61776.25;4943735;29;20240;-80
2022/01/14 05:46:34;;;;;;;30.43;15.97;;;;;;;-141.59;100.00;61776.25;4957231;28;20326;-80
2022/01/14 05:49:01;;;;;;;31.07;14.43;;;;;;;-141.59;100.00;61776.25;4942994;29;20241;-80
2022/01/14 05:51:28;;;;;;;30.67;16.57;;;;;;;-141.59;100.00;61776.25;4945639;28;20273;-80
2022/01/14 05:53:55;;;;;;;26.13;15.23;;;;;;;-141.59;100.00;61776.25;4937087;29;20245;-80
2022/01/14 05:56:24;;;;;;;33.37;15.20;;;;;;;-141.59;100.00;61776.25;4945435;29;20221;-80
2022/01/14 05:58:51;;;;;;;29.00;14.20;;;;;;;-141.59;100.00;61776.25;4939310;28;20297;-80
2022/01/14 06:01:18;;;;;;;32.33;16.30;;;;;;;-141.59;100.00;61776.25;4943290;28;20268;-80
2022/01/14 06:03:45;;;;;;;28.10;14.87;;;;;;;-141.59;100.00;61776.25;4959029;28;20253;-80
2022/01/14 06:06:12;;;;;;;35.33;16.70;;;;;;;-141.59;100.00;61776.25;4943070;28;20230;-80
2022/01/14 06:08:39;;;;;;;36.00;17.97;;;;;;;-141.59;100.00;61776.25;4954757;28;20258;-80
2022/01/14 06:11:06;;;;;;;37.37;18.23;;;;;;;-141.59;100.00;61776.25;4936707;28;20264;-80
2022/01/14 06:13:35;;;;;;;36.77;18.57;;;;;;;-141.59;100.00;61776.25;4944698;29;20226;-80
2022/01/14 06:16:02;;;;;;;37.27;18.57;;;;;;;-141.59;100.00;61776.25;4954507;28;20213;-80
2022/01/14 06:18:29;;;;;;;44.17;23.37;;;;;;;-141.59;100.00;61776.25;4946720;28;20218;-80
2022/01/14 06:20:56;;;;;;;34.17;17.27;;;;;;;-141.59;100.00;61776.25;4960542;28;20217;-80
2022/01/14 06:23:23;;;;;;;31.20;16.90;;;;;;;-141.59;100.00;61776.25;4953997;28;20304;-80
2022/01/14 06:25:50;;;;;;;30.23;16.00;;;;;;;-141.59;100.00;61776.25;4942958;29;20216;-80
2022/01/14 06:28:17;;;;;;;33.37;16.90;;;;;;;-141.59;100.00;61776.25;4942326;28;20224;-80
2022/01/14 06:30:46;;;;;;;36.37;19.10;;;;;;;-141.59;100.00;61776.25;4942178;29;20205;-80
2022/01/14 06:33:13;;;;;;;33.57;16.53;;;;;;;-141.59;100.00;61776.25;4945265;28;20224;-80
2022/01/14 06:35:40;;;;;;;27.70;15.30;;;;;;;-141.59;100.00;61776.25;4941886;29;20213;-80
2022/01/14 06:38:07;;;;;;;30.03;15.47;;;;;;;-141.59;100.00;61776.25;4944870;28;20199;-80
2022/01/14 06:40:34;;;;;;;34.57;17.23;;;;;;;-141.59;100.00;61776.25;4942643;28;20217;-80
2022/01/14 06:43:02;;;;;;;33.80;16.20;;;;;;;-141.59;100.00;61776.25;4956254;28;20215;-80
2022/01/14 06:45:29;;;;;;;35.13;17.07;;;;;;;-141.59;100.00;61776.25;4958837;28;20264;-80
2022/01/14 06:47:58;;;;;;;32.93;16.97;;;;;;;-141.59;100.00;61776.25;4949617;28;20242;-80
2022/01/14 06:50:25;;;;;;;33.20;16.90;;;;;;;-141.59;100.00;61776.25;4941494;29;20271;-80
2022/01/14 06:52:53;;;;;;;37.40;16.50;;;;;;;-141.59;100.00;61776.25;4947218;28;20211;-80
2022/01/14 06:55:20;;;;;;;31.40;16.67;;;;;;;-141.59;100.00;61776.25;4953271;28;20331;-80
2022/01/14 06:57:47;;;;;;;31.90;15.33;;;;;;;-141.59;100.00;61776.25;4941754;29;20218;-80
2022/01/14 07:00:17;;;;;;;34.50;17.17;;;;;;;-141.59;100.00;61776.25;4941902;28;20209;-81
2022/01/14 07:02:44;;;;;;;34.67;16.43;;;;;;;-141.59;100.00;61776.25;4948715;28;20213;-80
2022/01/14 07:05:16;;;;;;;35.77;17.20;;;;;;;-141.59;100.00;61776.25;4938737;28;20228;-80
2022/01/14 07:07:43;;;;;;;33.53;17.03;;;;;;;-141.59;100.00;61776.25;4961542;28;20292;-81
2022/01/14 07:10:10;;;;;;;35.60;17.50;;;;;;;-141.59;100.00;61776.25;4944335;28;20221;-81
2022/01/14 07:12:40;;;;;;;35.50;17.13;;;;;;;-141.59;100.00;61776.25;4959754;28;20202;-80
2022/01/14 07:15:10;;;;;;;35.23;17.37;;;;;;;-141.59;100.00;61776.25;4962504;28;20209;-80
2022/01/14 07:17:38;;;;;;;30.67;15.13;;;;;;;-141.59;100.00;61776.25;4947779;28;20209;-80
2022/01/14 07:20:11;;;;;;;32.17;15.03;;;;;;;-141.59;100.00;61776.25;4961321;28;20201;-80
2022/01/14 07:22:41;;;;;;;32.00;15.57;;;;;;;-141.59;100.00;61776.25;4963796;28;20215;-80
2022/01/14 07:25:09;;;;;;;39.80;19.10;;;;;;;-141.59;100.00;61776.25;4943605;28;20246;-81
2022/01/14 07:27:37;;;;;;;37.17;17.93;;;;;;;-141.59;100.00;61776.25;4948736;28;20210;-80
2022/01/14 07:30:05;;;;;;;39.70;19.33;;;;;;;-141.59;100.00;61776.25;4945387;28;20214;-86
2022/01/14 07:32:32;;;;;;;34.00;15.57;;;;;;;-141.59;100.00;61776.25;4945408;28;20219;-80
2022/01/14 07:34:59;;;;;;;31.97;16.10;;;;;;;-141.59;100.00;61776.25;4949852;28;20276;-80
2022/01/14 07:37:26;;;;;;;36.70;18.07;;;;;;;-141.59;100.00;61776.25;4948104;28;20208;-80
2022/01/14 07:39:55;;;;;;;36.90;16.67;;;;;;;-141.59;100.00;61776.25;4963477;28;20292;-80
2022/01/14 07:42:22;;;;;;;34.30;16.70;;;;;;;-141.59;100.00;61776.25;4944281;28;20310;-80
2022/01/14 07:44:49;;;;;;;33.27;16.50;;;;;;;-141.59;100.00;61776.25;4955865;28;20237;-80
2022/01/14 07:47:16;;;;;;;35.80;17.03;;;;;;;-141.59;100.00;61776.25;4964483;28;20207;-80
2022/01/14 07:49:46;;;;;;;34.13;16.83;;;;;;;-141.59;100.00;61776.25;4954470;28;20213;-80
2022/01/14 07:52:17;;;;;;;33.50;16.47;;;;;;;-141.59;100.00;61776.25;4949613;28;20211;-80
2022/01/14 07:54:44;;;;;;;37.20;18.63;;;;;;;-141.59;100.00;61776.25;4951131;28;20288;-80
2022/01/14 07:57:12;;;;;;;37.07;17.57;;;;;;;-141.59;100.00;61776.25;4960536;28;20216;-79
2022/01/14 07:59:41;;;;;;;34.07;17.63;;;;;;;-141.59;100.00;61776.25;4951899;28;20243;-80
2022/01/14 08:02:08;;;;;;;37.23;17.60;;;;;;;-141.59;100.00;61776.25;4962156;28;20264;-79
2022/01/14 08:04:49;;;;;;;33.87;16.93;;;;;;;-141.59;100.00;61776.25;4961942;28;20318;-80
2022/01/14 08:07:22;;;;;;;36.77;18.20;;;;;;;-141.59;100.00;61776.25;4948933;28;20238;-79
2022/01/14 08:09:49;;;;;;;37.93;19.03;;;;;;;-141.59;100.00;61776.25;4942914;28;20344;-80
2022/01/14 08:12:17;;;;;;;37.70;18.07;;;;;;;-141.59;100.00;61776.25;4957327;28;20206;-79
2022/01/14 08:14:45;;;;;;;36.33;17.83;;;;;;;-141.59;100.00;61776.25;4945541;29;20217;-80
2022/01/14 08:17:15;;;;;;;39.77;18.13;;;;;;;-141.59;100.00;61776.25;4947799;29;20276;-80
2022/01/14 08:19:42;;;;;;;35.53;17.70;;;;;;;-141.59;100.00;61776.25;4940553;29;20260;-80
2022/01/14 08:22:09;;;;;;;36.67;18.73;;;;;;;-141.59;100.00;61776.25;4935995;29;20281;-79
2022/01/14 08:24:38;;;;;;;37.70;18.30;;;;;;;-141.59;100.00;61776.25;4947883;28;20304;-79
2022/01/14 08:27:07;;;;;;;38.90;19.50;;;;;;;-141.59;100.00;61776.25;4942971;29;20218;-80
2022/01/14 08:29:36;;;;;;;41.47;18.73;;;;;;;-141.59;100.00;61776.25;4943168;29;20299;-80
2022/01/14 08:32:04;;;;;;;39.33;20.13;;;;;;;-141.59;100.00;61776.25;4946831;29;20215;-79
2022/01/14 08:34:31;;;;;;;37.77;18.53;;;;;;;-141.59;100.00;61776.25;4944088;28;20215;-80
2022/01/14 08:36:58;;;;;;;41.83;20.10;;;;;;;-141.59;100.00;61776.25;4961078;28;20206;-80
2022/01/14 08:39:25;;;;;;;37.13;18.87;;;;;;;-141.59;100.00;61776.25;4961988;28;20281;-80
2022/01/14 08:41:55;;;;;;;37.33;17.30;;;;;;;-141.59;100.00;61776.25;4947574;28;20215;-80
2022/01/14 08:44:22;;;;;;;43.60;19.37;;;;;;;-141.59;100.00;61776.25;4936477;29;20323;-80
2022/01/14 08:46:51;;;;;;;41.00;19.27;;;;;;;-141.59;100.00;61776.25;4963807;28;20264;-80
2022/01/14 08:49:20;;;;;;;35.30;17.57;;;;;;;-141.59;100.00;61776.25;4948411;29;20208;-80
2022/01/14 08:51:49;;;;;;;37.60;19.77;;;;;;;-141.59;100.00;61776.25;4952386;28;20316;-80
2022/01/14 08:54:16;;;;;;;38.43;19.57;;;;;;;-141.59;100.00;61776.25;4956057;28;20229;-80
2022/01/14 08:56:43;;;;;;;37.07;17.63;;;;;;;-141.59;100.00;61776.25;4959812;28;20214;-79
2022/01/14 08:59:10;;;;;;;33.93;17.03;;;;;;;-141.59;100.00;61776.25;4948518;28;20293;-80
2022/01/14 09:01:40;;;;;;;37.53;17.17;;;;;;;-141.59;100.00;61776.25;4949393;28;20215;-79
2022/01/14 09:04:09;;;;;;;36.57;17.87;;;;;;;-141.59;100.00;61776.25;4943450;28;20217;-79
2022/01/14 09:06:36;;;;;;;35.97;18.00;;;;;;;-141.59;100.00;61776.25;4948760;28;20289;-80
2022/01/14 09:09:06;;;;;;;40.07;18.93;;;;;;;-141.59;100.00;61776.25;4948558;28;20221;-80
2022/01/14 09:11:34;;;;;;;33.80;17.50;;;;;;;-141.59;100.00;61776.25;4949783;28;20307;-80
2022/01/14 09:14:01;;;;;;;38.40;18.53;;;;;;;-141.59;100.00;61776.25;4967557;28;20203;-79
2022/01/14 09:16:28;;;;;;;35.43;17.93;;;;;;;-141.59;100.00;61776.25;4947734;28;20215;-80
2022/01/14 09:18:55;;;;;;;39.73;18.60;;;;;;;-141.59;100.00;61776.25;4949233;28;20228;-80
2022/01/14 09:21:23;;;;;;;34.27;17.70;;;;;;;-141.59;100.00;61776.25;4942307;28;20236;-80
2022/01/14 09:23:53;;;;;;;39.67;18.83;;;;;;;-141.59;100.00;61776.25;4945179;28;20257;-79
2022/01/14 09:26:21;;;;;;;37.27;18.63;;;;;;;-141.59;100.00;61776.25;4948838;28;20235;-79
2022/01/14 09:28:49;;;;;;;39.90;18.93;;;;;;;-141.59;100.00;61776.25;4948951;28;20279;-80
2022/01/14 09:31:17;;;;;;;42.53;20.00;;;;;;;-141.59;100.00;61776.25;4947448;28;20251;-79
2022/01/14 09:33:44;;;;;;;42.67;19.27;;;;;;;-141.59;100.00;61776.25;4950086;28;20232;-81
2022/01/14 09:36:11;;;;;;;39.57;19.93;;;;;;;-141.59;100.00;61776.25;4943813;28;20204;-80
2022/01/14 09:38:40;;;;;;;36.23;17.77;;;;;;;-141.59;100.00;61776.25;4949807;28;20304;-80
2022/01/14 09:41:09;;;;;;;34.37;18.00;;;;;;;-141.59;100.00;61776.25;4965857;28;20207;-80
2022/01/14 09:43:39;;;;;;;36.47;18.67;;;;;;;-141.59;100.00;61776.25;4963013;28;20308;-80
2022/01/14 09:46:07;;;;;;;36.27;18.27;;;;;;;-141.59;100.00;61776.25;4947700;28;20235;-80
2022/01/14 09:48:35;;;;;;;40.00;19.00;;;;;;;-141.59;100.00;61776.25;4948215;28;20205;-80
2022/01/14 09:51:02;;;;;;;34.17;17.17;;;;;;;-141.59;100.00;61776.25;4959805;28;20291;-80
2022/01/14 09:53:31;;;;;;;42.30;19.80;;;;;;;-141.59;100.00;61776.25;4949788;28;20212;-80
2022/01/14 09:56:01;;;;;;;38.47;19.77;;;;;;;-141.59;100.00;61776.25;4957385;28;20295;-80
2022/01/14 09:58:34;;;;;;;36.33;19.20;;;;;;;-141.59;100.00;61776.25;4940427;28;20226;-80
2022/01/14 10:01:10;;;;;;;40.03;20.33;;;;;;;-141.59;100.00;61776.25;4951985;28;20231;-80
2022/01/14 10:03:52;;;;;;;36.47;19.10;;;;;;;-141.59;100.00;61776.25;4940662;28;20271;-80
2022/01/14 10:06:37;;;;;;;34.50;18.27;;;;;;;-141.59;100.00;61776.25;4945832;28;20232;-80
2022/01/14 10:09:08;;;;;;;32.30;16.47;;;;;;;-141.59;100.00;61776.25;4949813;28;20220;-80
2022/01/14 10:11:38;;;;;;;30.67;14.60;;;;;;;-141.59;100.00;61776.25;4942567;28;20213;-81
2022/01/14 10:14:11;;;;;;;31.07;14.93;;;;;;;-141.59;100.00;61776.25;4964824;28;20295;-81
2022/01/14 10:16:41;;;;;;;29.73;14.60;;;;;;;-141.59;100.00;61776.25;4945685;28;20299;-82
2022/01/14 10:19:22;;;;;;;32.13;15.37;;;;;;;-141.59;100.00;61776.25;4943692;28;20229;-81
2022/01/14 10:21:50;;;;;;;32.70;14.97;;;;;;;-141.59;100.00;61776.25;4965042;28;20209;-80
2022/01/14 10:24:18;;;;;;;32.20;16.10;;;;;;;-141.59;100.00;61776.25;4943147;28;20208;-80
2022/01/14 10:26:53;;;;;;;38.47;16.53;;;;;;;-141.59;100.00;61776.25;4938899;28;20284;-80
2022/01/14 10:29:29;;;;;;;34.83;15.00;;;;;;;-141.59;100.00;61776.25;4942558;28;20239;-81
2022/01/14 10:31:57;;;;;;;31.37;15.17;;;;;;;-141.59;100.00;61776.25;4946522;28;20212;-81
2022/01/14 10:34:25;;;;;;;37.67;16.87;;;;;;;-141.59;100.00;61776.25;4948307;28;20216;-80
2022/01/14 10:37:08;;;;;;;35.37;16.97;;;;;;;-141.59;100.00;61776.25;4942304;28;20219;-80
2022/01/14 10:39:35;;;;;;;33.07;16.23;;;;;;;-141.59;100.00;61776.25;4968244;28;20200;-80
2022/01/14 10:42:23;;;;;;;31.40;16.37;;;;;;;-141.59;100.00;61776.25;4949346;28;20212;-80
2022/01/14 10:44:50;;;;;;;34.13;15.77;;;;;;;-141.59;100.00;61776.25;4945050;28;20372;-80
2022/01/14 10:47:19;;;;;;;34.27;16.23;;;;;;;-141.59;100.00;61776.25;4959276;28;20219;-80
2022/01/14 10:49:47;;;;;;;31.27;16.17;;;;;;;-141.59;100.00;61776.25;4940014;29;20220;-80
2022/01/14 10:52:17;;;;;;;35.53;17.97;;;;;;;-141.59;100.00;61776.25;4948855;28;20219;-80
2022/01/14 10:54:45;;;;;;;35.67;16.93;;;;;;;-141.59;100.00;61776.25;4958691;28;20209;-80
2022/01/14 10:57:16;;;;;;;32.97;15.47;;;;;;;-141.59;100.00;61776.25;4946509;28;20220;-81
2022/01/14 10:59:44;;;;;;;32.10;16.50;;;;;;;-141.59;100.00;61776.25;4948868;28;20208;-80
2022/01/14 11:02:34;;;;;;;36.30;15.60;;;;;;;-141.59;100.00;61776.25;4948965;28;20306;-80
2022/01/14 11:05:06;;;;;;;35.20;16.03;;;;;;;-141.59;100.00;61776.25;4959234;28;20222;-81
2022/01/14 11:07:34;;;;;;;36.53;15.60;;;;;;;-141.59;100.00;61776.25;4960757;28;20241;-81
2022/01/14 11:10:02;;;;;;;30.90;15.13;;;;;;;-141.59;100.00;61776.25;4948935;28;20220;-81
2022/01/14 11:12:31;;;;;;;34.13;15.90;;;;;;;-141.59;100.00;61776.25;4941001;28;20303;-81
2022/01/14 11:14:58;;;;;;;30.73;15.43;;;;;;;-141.59;100.00;61776.25;4943523;28;20209;-81
2022/01/14 11:17:25;;;;;;;32.27;16.43;;;;;;;-141.59;100.00;61776.25;4947922;28;20255;-81
2022/01/14 11:19:52;;;;;;;33.27;16.17;;;;;;;-141.59;100.00;61776.25;4939344;28;20221;-81